ENGMESST

Guest
Details From ENGM - Oslo Gardermoen
To ESST - TORSBY
Flight Number -
Tags generated
Created
Modified
Stats Distance 57 nm / 105 km
Max Altitude 3,000 ft / 914 m
Waypoints 3
Social Downloads 1
Likes 0
Share VATSIM

Download

Looking for another format? Having issues loading an existing format? Contact us
Advertisement - Login to hide

Notes

Basic altitude profile: - Ascent Rate: 2500ft/min - Ascent Speed: 250kts - Cruise Altitude: 35000ft - Cruise Speed: 420kts - Descent Rate: 1500ft/min - Descent Speed: 250kts Options: - Use NATs: yes - Use PACOTS: yes - Use low airways: yes - Use high airways: yes

Route

ENGM SUTOK ESST

ID Type Via Altitude Latitude Longitude Leg Dist Tot Dist Heading (true) Name
O ENGM APT - 0 ft / 0 m 60.19451˚ 11.09900˚ - 0 nm - Oslo Gardermoen
SUTOK FIX - 3,000 ft / 914 m 60.12750˚ 12.51278˚ 42 nm 42 nm 95° / 96° -
O ESST APT - 0 ft / 0 m 60.15737˚ 12.99147˚ 14 nm 56 nm 83° / 83° TORSBY

Altitude Profile

Advertisement - Login to hide

ENGM

Details ICAO ENGM (OSL)
Name Oslo Gardermoen
Region Norway
Timezone Europe/Oslo (UTC+1.0)
Stats Elevation 681 ft / 208 m (AMSL)
Location 60.194507° 11.098998°
Runways 2
Magnetic Variation 3.386° E

METAR

ENGM 170220Z VRB01KT CAVOK M13/M15 Q1011

Decode

TAF

TAF ENGM 162300Z 1700/1724 36005KT CAVOK PROB30 1715/1724 0800 FZFG VV002

Decode

Departure Runways

ID Width Length Bearing (true) Bearing (mag) Surface Threshold Offset Overrun Length
01L 148 ft / 45 m 12,144 ft / 3,702 m 15.89° 12.50° Concrete 0 ft / 0 m 499 ft / 152 m
01R 148 ft / 45 m 10,014 ft / 3,052 m 15.89° 12.50° Concrete 0 ft / 0 m 499 ft / 152 m
19L 148 ft / 45 m 10,014 ft / 3,052 m 195.91° 192.52° Concrete 0 ft / 0 m 466 ft / 142 m
19R 148 ft / 45 m 12,144 ft / 3,702 m 195.91° 192.52° Concrete 0 ft / 0 m 482 ft / 147 m

ESST

Details ICAO ESST (TYF)
Name TORSBY
Region Sweden
Timezone Europe/Stockholm (UTC+1.0)
Stats Elevation 393 ft / 120 m (AMSL)
Location 60.157373° 12.991474°
Runways 1
Magnetic Variation 4.175° E

METAR

ESST 170220Z AUTO 31003KT 9999 NCD M17/M18 Q1012

Decode

TAF

Not found

Destination Runways

ID Width Length Bearing (true) Bearing (mag) Surface Threshold Offset Overrun Length
16 95 ft / 29 m 5,208 ft / 1,587 m 157.74° 153.56° Asphalt 367 ft / 112 m 0 ft / 0 m
34 95 ft / 29 m 5,208 ft / 1,587 m 337.75° 333.57° Asphalt 0 ft / 0 m 0 ft / 0 m

Approach Navaids

Runway Type Ident Frequency Range Bearing (true) Bearing (mag) Slope Elevation
16 Localiser NST 108.70 MHz 18 nm / 33 km 157.77° 153.59° - 393 ft / 120 m (AMSL)
16 DME NST 108.70 MHz 18 nm / 33 km - - - 397 ft / 121 m (AMSL)
34 Localiser ST 110.90 MHz 18 nm / 33 km 337.74° 333.57° - 393 ft / 120 m (AMSL)

Popular Alternatives